Time;durP1;ratioP1;P1;durP2;ratioP2;P2;SDS_P1;SDS_P2;PMS_P1;PMS_P2;Temp;Humidity;BMP_temperature;BMP_pressure;BME280_temperature;BME280_humidity;BME280_pressure;Samples;Min_cycle;Max_cycle;Signal;HPM_P1;HPM_P2
2022/10/15 00:00:39;;;;;;;;;;;20.60;76.30;;;;;;5092273;28;19945;-70
2022/10/15 00:03:05;;;;;;;;;;;20.50;76.70;;;;;;5091527;28;19912;-69
2022/10/15 00:05:32;;;;;;;;;;;20.50;75.60;;;;;;5092073;28;19912;-72
2022/10/15 00:07:59;;;;;;;;;;;20.50;77.30;;;;;;5092663;28;19908;-70
2022/10/15 00:10:25;;;;;;;;;;;20.60;76.50;;;;;;5093794;28;20280;-70
2022/10/15 00:12:52;;;;;;;;;;;20.70;76.20;;;;;;5093354;28;19918;-70
2022/10/15 00:15:18;;;;;;;;;;;20.80;75.70;;;;;;5092878;28;19957;-71
2022/10/15 00:17:45;;;;;;;;;;;20.90;75.30;;;;;;5092766;28;19916;-72
2022/10/15 00:20:12;;;;;;;;;;;20.90;74.80;;;;;;5093265;28;19915;-71
2022/10/15 00:22:39;;;;;;;;;;;21.00;75.10;;;;;;5093113;28;20349;-71
2022/10/15 00:25:06;;;;;;;;;;;21.20;75.10;;;;;;5092854;28;19908;-70
2022/10/15 00:27:35;;;;;;;;;;;21.40;74.40;;;;;;5092943;28;19959;-69
2022/10/15 00:30:04;;;;;;;;;;;21.60;74.50;;;;;;5092881;28;19908;-70
2022/10/15 00:32:31;;;;;;;;;;;21.70;73.50;;;;;;5092763;28;19935;-70
2022/10/15 00:34:57;;;;;;;;;;;21.80;72.70;;;;;;5074139;28;19908;-69
2022/10/15 00:37:24;;;;;;;;;;;21.90;72.80;;;;;;5092512;28;20264;-71
2022/10/15 00:39:50;;;;;;;;;;;22.00;72.20;;;;;;5092695;28;19908;-70
2022/10/15 00:42:17;;;;;;;;;;;22.10;71.70;;;;;;5092147;28;19908;-70
2022/10/15 00:44:57;;;;;;;;;;;22.20;72.20;;;;;;5092592;28;19953;-70
2022/10/15 00:47:29;;;;;;;;;;;22.20;70.60;;;;;;5092435;28;19999;-69
2022/10/15 00:50:04;;;;;;;;;;;22.20;70.50;;;;;;5074444;28;19908;-70
2022/10/15 00:52:38;;;;;;;;;;;22.20;71.10;;;;;;5092667;28;19908;-71
2022/10/15 00:55:07;;;;;;;;;;;22.30;71.20;;;;;;5092699;28;19915;-71
2022/10/15 00:57:34;;;;;;;;;;;22.40;70.90;;;;;;5092298;28;19923;-71
2022/10/15 01:00:04;;;;;;;;;;;22.40;70.70;;;;;;5092386;28;19908;-72
2022/10/15 01:02:30;;;;;;;;;;;22.60;70.90;;;;;;5092722;28;19915;-71
2022/10/15 01:04:57;;;;;;;;;;;22.70;69.70;;;;;;5092646;28;19908;-71
2022/10/15 01:07:24;;;;;;;;;;;22.70;68.80;;;;;;5092078;28;19915;-72
2022/10/15 01:09:50;;;;;;;;;;;22.80;70.40;;;;;;5091679;28;20045;-71
2022/10/15 01:12:24;;;;;;;;;;;23.00;69.50;;;;;;5074020;28;19969;-71
2022/10/15 01:14:51;;;;;;;;;;;23.20;69.50;;;;;;5091996;28;19924;-71
2022/10/15 01:17:24;;;;;;;;;;;23.30;69.70;;;;;;5092063;28;19919;-71
2022/10/15 01:20:00;;;;;;;;;;;23.60;69.40;;;;;;5092231;28;20105;-69
2022/10/15 01:22:27;;;;;;;;;;;23.90;68.70;;;;;;5092318;28;19912;-71
2022/10/15 01:25:12;;;;;;;;;;;24.10;70.50;;;;;;5074249;28;19908;-71
2022/10/15 01:27:42;;;;;;;;;;;24.10;66.70;;;;;;5092791;28;19908;-70
2022/10/15 01:30:15;;;;;;;;;;;23.80;66.40;;;;;;5092378;28;19904;-71
2022/10/15 01:32:47;;;;;;;;;;;23.70;67.40;;;;;;5092076;28;20382;-71
2022/10/15 01:35:17;;;;;;;;;;;24.10;67.70;;;;;;5092106;28;20403;-71
2022/10/15 01:38:02;;;;;;;;;;;24.40;67.70;;;;;;5091631;28;20367;-72
2022/10/15 01:40:35;;;;;;;;;;;24.40;67.50;;;;;;5091955;28;20352;-71
2022/10/15 01:43:03;;;;;;;;;;;24.90;70.80;;;;;;5092204;28;19915;-72
2022/10/15 01:45:41;;;;;;;;;;;25.20;66.90;;;;;;5092010;28;19918;-72
2022/10/15 01:48:11;;;;;;;;;;;24.90;65.60;;;;;;5091913;28;19908;-71
2022/10/15 01:50:40;;;;;;;;;;;24.90;65.30;;;;;;5091843;28;19934;-71
2022/10/15 01:53:07;;;;;;;;;;;25.10;66.80;;;;;;5092303;28;20391;-71
2022/10/15 01:55:35;;;;;;;;;;;25.10;71.90;;;;;;5095293;28;19908;-71
2022/10/15 01:58:02;;;;;;;;;;;25.30;67.40;;;;;;5095159;28;19955;-71
2022/10/15 02:00:29;;;;;;;;;;;25.30;65.80;;;;;;5095831;28;20418;-71
2022/10/15 02:02:59;;;;;;;;;;;25.10;67.30;;;;;;5095328;28;19947;-71
2022/10/15 02:05:30;;;;;;;;;;;25.30;66.70;;;;;;5095298;28;19934;-71
2022/10/15 02:08:00;;;;;;;;;;;25.30;66.10;;;;;;5095633;28;19908;-71
2022/10/15 02:10:45;;;;;;;;;;;25.30;65.30;;;;;;5095734;28;20276;-72
2022/10/15 02:13:18;;;;;;;;;;;25.30;66.60;;;;;;5095244;28;19908;-70
2022/10/15 02:15:44;;;;;;;;;;;25.40;66.10;;;;;;5095517;28;20395;-71
2022/10/15 02:18:11;;;;;;;;;;;25.50;65.80;;;;;;5095439;28;19927;-72
2022/10/15 02:21:01;;;;;;;;;;;25.40;66.30;;;;;;5095235;28;19909;-69
2022/10/15 02:23:50;;;;;;;;;;;25.30;65.60;;;;;;5094845;28;19914;-72
2022/10/15 02:26:18;;;;;;;;;;;25.20;66.10;;;;;;5095272;28;19912;-71
2022/10/15 02:28:49;;;;;;;;;;;25.40;66.10;;;;;;5095106;28;19908;-70
2022/10/15 02:31:18;;;;;;;;;;;25.40;67.00;;;;;;5076816;28;19914;-71
2022/10/15 02:33:45;;;;;;;;;;;25.40;65.30;;;;;;5095001;28;19909;-69
2022/10/15 02:36:12;;;;;;;;;;;24.90;65.50;;;;;;5095316;28;20338;-70
2022/10/15 02:38:42;;;;;;;;;;;24.50;65.80;;;;;;5095196;28;20312;-70
2022/10/15 02:41:09;;;;;;;;;;;24.50;67.70;;;;;;5095083;28;19934;-69
2022/10/15 02:43:36;;;;;;;;;;;25.10;66.90;;;;;;5095005;28;19909;-69
2022/10/15 02:46:04;;;;;;;;;;;25.80;67.00;;;;;;5095029;28;19908;-69
2022/10/15 02:48:30;;;;;;;;;;;26.60;64.00;;;;;;5095088;28;20427;-70
2022/10/15 02:50:57;;;;;;;;;;;27.40;63.00;;;;;;5094875;28;19908;-70
2022/10/15 02:53:23;;;;;;;;;;;27.90;62.10;;;;;;5094650;28;19916;-70
2022/10/15 02:55:50;;;;;;;;;;;28.30;60.80;;;;;;5094776;28;20008;-69
2022/10/15 02:58:17;;;;;;;;;;;28.80;60.70;;;;;;5094925;28;19963;-70
2022/10/15 03:00:43;;;;;;;;;;;29.30;59.40;;;;;;5094823;28;20350;-70
2022/10/15 03:03:10;;;;;;;;;;;29.80;60.60;;;;;;5094245;28;20284;-71
2022/10/15 03:05:37;;;;;;;;;;;29.90;58.80;;;;;;5093640;28;19912;-70
2022/10/15 03:08:03;;;;;;;;;;;30.10;58.20;;;;;;5093162;28;19916;-68
2022/10/15 03:10:30;;;;;;;;;;;30.10;58.60;;;;;;5093901;28;20009;-71
2022/10/15 03:13:01;;;;;;;;;;;29.70;59.80;;;;;;5093014;28;19959;-70
2022/10/15 03:15:28;;;;;;;;;;;30.00;59.30;;;;;;5089713;28;19920;-70
2022/10/15 03:17:55;;;;;;;;;;;30.30;60.20;;;;;;5092510;28;19916;-70
2022/10/15 03:20:21;;;;;;;;;;;30.30;58.60;;;;;;5092668;28;19936;-70
2022/10/15 03:22:48;;;;;;;;;;;30.40;59.10;;;;;;5093571;28;19915;-70
2022/10/15 03:25:15;;;;;;;;;;;30.60;57.60;;;;;;5094209;28;19919;-71
2022/10/15 03:27:41;;;;;;;;;;;30.60;57.30;;;;;;5093311;28;19998;-74
2022/10/15 03:30:08;;;;;;;;;;;31.00;58.10;;;;;;5092823;28;19962;-72
2022/10/15 03:32:35;;;;;;;;;;;31.20;57.50;;;;;;5094013;28;19908;-71
2022/10/15 03:35:02;;;;;;;;;;;31.60;59.20;;;;;;5094028;28;19915;-72
2022/10/15 03:37:28;;;;;;;;;;;31.70;56.30;;;;;;5094034;28;19919;-72
2022/10/15 03:39:55;;;;;;;;;;;31.80;56.00;;;;;;5094076;28;19908;-73
2022/10/15 03:42:21;;;;;;;;;;;31.90;55.50;;;;;;5093974;28;20367;-71
2022/10/15 03:44:48;;;;;;;;;;;31.90;55.60;;;;;;5093736;28;19908;-71
2022/10/15 03:47:15;;;;;;;;;;;31.80;57.60;;;;;;5093798;28;19915;-72
2022/10/15 03:49:41;;;;;;;;;;;32.00;55.60;;;;;;5093713;28;19912;-71
2022/10/15 03:52:08;;;;;;;;;;;32.00;57.40;;;;;;5093175;28;20372;-71
2022/10/15 03:54:35;;;;;;;;;;;31.60;56.60;;;;;;5093070;28;19908;-71
2022/10/15 03:57:01;;;;;;;;;;;31.50;56.00;;;;;;5093374;28;20524;-69
2022/10/15 03:59:28;;;;;;;;;;;31.80;56.20;;;;;;5093264;28;19954;-72
2022/10/15 04:01:54;;;;;;;;;;;32.00;56.30;;;;;;5093338;28;19962;-72
2022/10/15 04:04:21;;;;;;;;;;;31.50;56.60;;;;;;5093517;28;19908;-72
2022/10/15 04:06:48;;;;;;;;;;;31.50;58.10;;;;;;5093758;28;19912;-72
2022/10/15 04:09:14;;;;;;;;;;;31.60;56.80;;;;;;5093438;28;19908;-72
2022/10/15 04:11:41;;;;;;;;;;;31.80;57.40;;;;;;5093485;28;19916;-72
2022/10/15 04:14:08;;;;;;;;;;;32.20;57.20;;;;;;5093019;28;19946;-72
2022/10/15 04:16:34;;;;;;;;;;;32.20;55.40;;;;;;5092185;28;20463;-72
2022/10/15 04:19:01;;;;;;;;;;;32.10;56.20;;;;;;5092548;28;19922;-73
2022/10/15 04:21:27;;;;;;;;;;;32.40;56.60;;;;;;5092853;28;20287;-73
2022/10/15 04:23:54;;;;;;;;;;;32.40;56.50;;;;;;5093389;28;19915;-72
2022/10/15 04:26:21;;;;;;;;;;;32.00;56.00;;;;;;5092859;28;19915;-72
2022/10/15 04:28:48;;;;;;;;;;;32.20;56.50;;;;;;5092457;28;19908;-73
2022/10/15 04:31:15;;;;;;;;;;;32.70;55.20;;;;;;5092667;28;19955;-73
2022/10/15 04:33:41;;;;;;;;;;;32.20;55.30;;;;;;5074486;28;20014;-73
2022/10/15 04:36:11;;;;;;;;;;;32.00;56.80;;;;;;5092750;28;20357;-72
2022/10/15 04:38:38;;;;;;;;;;;32.20;54.80;;;;;;5092468;28;19923;-73
2022/10/15 04:41:05;;;;;;;;;;;31.60;56.30;;;;;;5092264;28;20438;-72
2022/10/15 04:43:32;;;;;;;;;;;31.10;57.50;;;;;;5092507;28;19908;-72
2022/10/15 04:45:59;;;;;;;;;;;31.50;58.00;;;;;;5092820;28;19908;-73
2022/10/15 04:48:30;;;;;;;;;;;32.10;56.80;;;;;;5092649;28;19908;-72
2022/10/15 04:51:13;;;;;;;;;;;32.50;55.80;;;;;;5092641;28;19909;-72
2022/10/15 04:53:40;;;;;;;;;;;31.90;56.20;;;;;;5092386;28;19912;-74
2022/10/15 04:56:08;;;;;;;;;;;31.50;56.50;;;;;;5092578;28;19908;-71
2022/10/15 04:58:35;;;;;;;;;;;31.70;57.30;;;;;;5092232;28;19958;-73
2022/10/15 05:01:03;;;;;;;;;;;32.30;56.40;;;;;;5092301;28;20364;-72
2022/10/15 05:03:29;;;;;;;;;;;32.40;57.50;;;;;;5092432;28;19908;-72
2022/10/15 05:06:01;;;;;;;;;;;32.40;57.80;;;;;;5092832;28;20024;-72
2022/10/15 05:08:28;;;;;;;;;;;32.30;56.20;;;;;;5092274;28;19916;-72
2022/10/15 05:10:59;;;;;;;;;;;32.20;57.20;;;;;;5092330;28;19944;-72
2022/10/15 05:13:25;;;;;;;;;;;32.60;57.50;;;;;;5091322;28;20346;-71
2022/10/15 05:15:52;;;;;;;;;;;32.70;56.10;;;;;;5072976;28;19961;-71
2022/10/15 05:18:18;;;;;;;;;;;32.70;57.40;;;;;;5091412;28;20338;-71
2022/10/15 05:20:45;;;;;;;;;;;32.60;56.70;;;;;;5092104;28;19915;-71
2022/10/15 05:23:12;;;;;;;;;;;31.70;57.10;;;;;;5092094;28;20365;-72
2022/10/15 05:25:38;;;;;;;;;;;31.90;57.50;;;;;;5092265;28;19958;-70
2022/10/15 05:28:05;;;;;;;;;;;31.90;56.50;;;;;;5093340;28;19939;-72
2022/10/15 05:30:33;;;;;;;;;;;31.30;59.20;;;;;;5096836;28;19958;-72
2022/10/15 05:33:00;;;;;;;;;;;31.80;59.30;;;;;;5092264;28;20376;-71
2022/10/15 05:35:27;;;;;;;;;;;31.70;57.40;;;;;;5086416;28;19912;-71
2022/10/15 05:37:53;;;;;;;;;;;31.40;58.10;;;;;;5095863;28;19915;-71
2022/10/15 05:40:20;;;;;;;;;;;31.20;57.90;;;;;;5096107;28;19912;-72
2022/10/15 05:42:50;;;;;;;;;;;30.70;58.30;;;;;;5095798;28;19918;-71
2022/10/15 05:45:17;;;;;;;;;;;30.60;59.50;;;;;;5096051;28;19998;-71
2022/10/15 05:47:43;;;;;;;;;;;31.00;58.70;;;;;;5096208;28;19962;-71
2022/10/15 05:50:10;;;;;;;;;;;30.90;58.80;;;;;;5095917;28;20327;-72
2022/10/15 05:52:36;;;;;;;;;;;30.50;58.10;;;;;;5095846;28;19948;-72
2022/10/15 05:55:03;;;;;;;;;;;30.00;60.00;;;;;;5076882;28;19912;-72
2022/10/15 05:57:30;;;;;;;;;;;29.70;61.70;;;;;;5095646;28;19919;-72
2022/10/15 05:59:56;;;;;;;;;;;29.90;61.60;;;;;;5095881;28;19908;-72
2022/10/15 06:02:23;;;;;;;;;;;30.30;61.20;;;;;;5077074;28;20378;-71
2022/10/15 06:04:52;;;;;;;;;;;29.50;60.30;;;;;;5076959;28;20003;-72
2022/10/15 06:07:19;;;;;;;;;;;29.40;60.30;;;;;;5095226;28;19908;-71
2022/10/15 06:09:45;;;;;;;;;;;29.50;60.50;;;;;;5095069;28;19908;-71
2022/10/15 06:12:12;;;;;;;;;;;29.20;61.80;;;;;;5095069;28;20272;-71
2022/10/15 06:14:39;;;;;;;;;;;29.30;62.00;;;;;;5095167;28;19920;-71
2022/10/15 06:17:05;;;;;;;;;;;29.70;61.10;;;;;;5095436;28;19994;-71
2022/10/15 06:19:32;;;;;;;;;;;29.40;61.60;;;;;;5095794;28;19962;-69
2022/10/15 06:21:58;;;;;;;;;;;28.90;63.60;;;;;;5095221;28;19995;-73
2022/10/15 06:24:25;;;;;;;;;;;28.50;65.10;;;;;;5094419;28;20046;-70
2022/10/15 06:26:52;;;;;;;;;;;28.20;66.00;;;;;;5094567;28;20364;-70
2022/10/15 06:29:18;;;;;;;;;;;28.40;66.30;;;;;;5094872;28;19908;-71
2022/10/15 06:31:45;;;;;;;;;;;28.70;65.00;;;;;;5095337;28;19915;-70
2022/10/15 06:34:12;;;;;;;;;;;28.40;65.00;;;;;;5077098;28;19969;-68
2022/10/15 06:36:38;;;;;;;;;;;28.00;66.30;;;;;;5094620;28;19985;-72
2022/10/15 06:39:05;;;;;;;;;;;27.70;66.10;;;;;;5094712;28;19977;-69
2022/10/15 06:41:31;;;;;;;;;;;27.80;66.50;;;;;;5092690;28;19919;-69
2022/10/15 06:43:58;;;;;;;;;;;27.60;65.40;;;;;;5093852;28;19915;-72
2022/10/15 06:46:25;;;;;;;;;;;27.20;62.40;;;;;;5093763;28;19923;-69
2022/10/15 06:48:53;;;;;;;;;;;27.20;66.00;;;;;;5090205;28;19973;-70
2022/10/15 06:51:19;;;;;;;;;;;26.70;67.60;;;;;;5093119;28;19927;-71
2022/10/15 06:53:46;;;;;;;;;;;26.50;69.30;;;;;;5073182;28;19916;-69
2022/10/15 06:56:13;;;;;;;;;;;26.50;69.30;;;;;;5073744;28;19912;-69
2022/10/15 06:58:42;;;;;;;;;;;26.60;68.60;;;;;;5090528;28;19916;-73
2022/10/15 07:01:09;;;;;;;;;;;26.00;68.20;;;;;;5094087;28;19916;-71
2022/10/15 07:03:37;;;;;;;;;;;25.70;68.90;;;;;;5093712;28;19915;-71
2022/10/15 07:06:05;;;;;;;;;;;25.50;71.30;;;;;;5094207;28;19953;-70
2022/10/15 07:08:32;;;;;;;;;;;25.50;70.70;;;;;;5093669;28;19919;-70
2022/10/15 07:11:03;;;;;;;;;;;24.90;71.80;;;;;;5094139;28;19908;-71
2022/10/15 07:13:30;;;;;;;;;;;24.60;72.50;;;;;;5093114;28;20379;-70
2022/10/15 07:15:56;;;;;;;;;;;24.30;73.30;;;;;;5093068;28;19926;-70
2022/10/15 07:18:23;;;;;;;;;;;24.00;74.70;;;;;;5093285;28;19916;-70
2022/10/15 07:20:49;;;;;;;;;;;23.50;75.70;;;;;;5093313;28;19908;-69
2022/10/15 07:23:16;;;;;;;;;;;23.30;77.40;;;;;;5093127;28;19908;-68
2022/10/15 07:25:43;;;;;;;;;;;22.80;77.80;;;;;;5074194;28;20432;-71
2022/10/15 07:28:09;;;;;;;;;;;22.40;78.80;;;;;;5093657;28;19912;-69
2022/10/15 07:30:36;;;;;;;;;;;22.20;79.80;;;;;;5093587;28;20337;-70
2022/10/15 07:33:03;;;;;;;;;;;22.10;79.30;;;;;;5090014;28;20365;-71
2022/10/15 07:35:29;;;;;;;;;;;21.80;80.50;;;;;;5090534;28;19908;-71
2022/10/15 07:37:59;;;;;;;;;;;21.60;81.30;;;;;;5091271;28;20395;-69
2022/10/15 07:40:26;;;;;;;;;;;21.30;82.50;;;;;;5093888;28;20273;-72
2022/10/15 07:42:53;;;;;;;;;;;21.20;83.30;;;;;;5092854;28;19990;-71
2022/10/15 07:45:20;;;;;;;;;;;20.90;84.80;;;;;;5091808;28;19916;-72
2022/10/15 07:47:46;;;;;;;;;;;20.90;85.60;;;;;;5091462;28;20350;-71
2022/10/15 07:50:13;;;;;;;;;;;20.70;87.40;;;;;;5091369;28;19931;-71
2022/10/15 07:52:40;;;;;;;;;;;20.70;87.60;;;;;;5092025;28;20288;-69
2022/10/15 07:55:07;;;;;;;;;;;20.70;87.40;;;;;;5092534;28;20380;-69
2022/10/15 07:57:33;;;;;;;;;;;20.70;87.60;;;;;;5093453;28;20384;-71
2022/10/15 08:00:00;;;;;;;;;;;20.70;87.20;;;;;;5093566;28;19912;-69
2022/10/15 08:02:27;;;;;;;;;;;20.70;87.60;;;;;;5093243;28;19916;-71
2022/10/15 08:04:53;;;;;;;;;;;20.70;87.40;;;;;;5093325;28;19912;-70
2022/10/15 08:07:20;;;;;;;;;;;20.60;87.90;;;;;;5093359;28;19912;-69
2022/10/15 08:09:47;;;;;;;;;;;20.60;88.10;;;;;;5093263;28;20295;-69
2022/10/15 08:12:14;;;;;;;;;;;20.40;88.00;;;;;;5093313;28;19930;-69
2022/10/15 08:14:40;;;;;;;;;;;20.20;88.70;;;;;;5093003;28;20437;-69
2022/10/15 08:17:07;;;;;;;;;;;20.00;90.00;;;;;;5093116;28;19908;-69
2022/10/15 08:19:34;;;;;;;;;;;20.00;90.30;;;;;;5092998;28;19934;-68
2022/10/15 08:22:00;;;;;;;;;;;19.90;90.50;;;;;;5093465;28;19919;-70
2022/10/15 08:24:29;;;;;;;;;;;19.90;90.80;;;;;;5075148;28;20257;-68
2022/10/15 08:26:56;;;;;;;;;;;19.90;91.30;;;;;;5093346;28;19956;-68
2022/10/15 08:29:23;;;;;;;;;;;19.80;91.30;;;;;;5092739;28;19908;-68
2022/10/15 08:31:50;;;;;;;;;;;19.70;91.50;;;;;;5092627;28;19965;-71
2022/10/15 08:34:16;;;;;;;;;;;19.70;91.70;;;;;;5092590;28;20279;-70
2022/10/15 08:36:43;;;;;;;;;;;19.70;92.00;;;;;;5092914;28;19991;-70
2022/10/15 08:39:10;;;;;;;;;;;19.70;92.10;;;;;;5092645;28;19920;-69
2022/10/15 08:41:40;;;;;;;;;;;19.70;92.20;;;;;;5092270;28;19919;-70
2022/10/15 08:44:12;;;;;;;;;;;19.60;92.30;;;;;;5092438;28;19912;-70
2022/10/15 08:46:42;;;;;;;;;;;19.50;92.20;;;;;;5092886;28;20006;-69
2022/10/15 08:49:41;;;;;;;;;;;19.50;92.40;;;;;;5074491;28;20354;-69
2022/10/15 08:52:25;;;;;;;;;;;19.50;92.20;;;;;;5037278;28;20379;-70
2022/10/15 08:54:54;;;;;;;;;;;19.40;92.70;;;;;;5074494;28;19965;-71
2022/10/15 08:57:21;;;;;;;;;;;19.40;92.80;;;;;;5092501;28;19965;-70
2022/10/15 08:59:57;;;;;;;;;;;19.40;92.80;;;;;;5074425;28;19912;-70
2022/10/15 09:03:02;;;;;;;;;;;19.40;93.10;;;;;;5092717;28;19962;-70
2022/10/15 09:05:37;;;;;;;;;;;19.50;93.10;;;;;;5050210;28;19916;-69
2022/10/15 09:08:04;;;;;;;;;;;19.40;93.10;;;;;;5049950;28;19908;-69
2022/10/15 09:10:47;;;;;;;;;;;19.40;93.50;;;;;;5072729;28;19919;-70
2022/10/15 09:13:15;;;;;;;;;;;19.40;93.40;;;;;;5091758;28;19916;-68
2022/10/15 09:15:53;;;;;;;;;;;19.30;93.40;;;;;;5092805;28;19965;-69
2022/10/15 09:18:22;;;;;;;;;;;19.20;93.40;;;;;;5074439;28;20300;-70
2022/10/15 09:20:49;;;;;;;;;;;19.20;93.60;;;;;;5093041;28;20015;-69
2022/10/15 09:23:18;;;;;;;;;;;19.20;93.60;;;;;;5093220;28;19953;-67
2022/10/15 09:25:47;;;;;;;;;;;19.20;93.60;;;;;;5093456;28;19912;-68
2022/10/15 09:28:16;;;;;;;;;;;19.20;93.60;;;;;;5093314;28;19908;-69
2022/10/15 09:30:42;;;;;;;;;;;19.20;93.90;;;;;;5092549;28;19912;-69
2022/10/15 09:33:26;;;;;;;;;;;19.20;93.50;;;;;;5092577;28;19908;-68
2022/10/15 09:36:03;;;;;;;;;;;19.10;93.90;;;;;;5092494;28;19908;-70
2022/10/15 09:38:29;;;;;;;;;;;19.20;94.20;;;;;;5092164;28;19920;-71
2022/10/15 09:40:56;;;;;;;;;;;19.20;94.40;;;;;;5092347;28;19915;-70
2022/10/15 09:43:29;;;;;;;;;;;19.20;94.40;;;;;;5090097;28;19999;-71
2022/10/15 09:45:56;;;;;;;;;;;19.30;94.40;;;;;;5091517;28;20395;-69
2022/10/15 09:48:23;;;;;;;;;;;19.30;94.20;;;;;;5091873;28;20284;-71
2022/10/15 09:51:02;;;;;;;;;;;19.30;94.70;;;;;;5092109;28;20448;-69
2022/10/15 09:53:46;;;;;;;;;;;19.30;94.70;;;;;;5091905;28;19912;-71
2022/10/15 09:56:15;;;;;;;;;;;19.40;94.60;;;;;;5092160;28;19965;-71
2022/10/15 09:58:55;;;;;;;;;;;19.30;94.40;;;;;;5092266;28;19920;-70
2022/10/15 10:01:23;;;;;;;;;;;19.30;94.50;;;;;;5091967;28;19915;-72
2022/10/15 10:03:53;;;;;;;;;;;19.30;95.10;;;;;;5091823;28;20042;-70
2022/10/15 10:06:23;;;;;;;;;;;19.30;94.70;;;;;;5092096;28;19912;-70
2022/10/15 10:08:55;;;;;;;;;;;19.30;95.00;;;;;;5092049;28;19915;-70
2022/10/15 10:11:22;;;;;;;;;;;19.50;95.20;;;;;;5091858;28;19920;-70
2022/10/15 10:13:48;;;;;;;;;;;19.50;95.10;;;;;;5091080;28;19920;-70
2022/10/15 10:16:16;;;;;;;;;;;19.50;95.20;;;;;;5093943;28;19994;-70
2022/10/15 10:18:49;;;;;;;;;;;19.60;95.10;;;;;;5077134;28;19920;-70
2022/10/15 10:21:25;;;;;;;;;;;19.60;95.10;;;;;;5094707;28;19913;-69
2022/10/15 10:23:52;;;;;;;;;;;19.60;95.10;;;;;;5095485;28;19996;-68
2022/10/15 10:26:19;;;;;;;;;;;19.70;95.40;;;;;;5095468;28;19912;-70
2022/10/15 10:28:50;;;;;;;;;;;19.70;95.20;;;;;;5095408;28;19908;-71
2022/10/15 10:31:18;;;;;;;;;;;19.70;95.50;;;;;;5095131;28;19915;-71
2022/10/15 10:33:46;;;;;;;;;;;19.60;95.50;;;;;;5095395;28;19912;-70
2022/10/15 10:36:21;;;;;;;;;;;19.60;95.50;;;;;;5095325;28;20360;-70
2022/10/15 10:38:56;;;;;;;;;;;19.60;95.60;;;;;;5095038;28;19916;-70
2022/10/15 10:41:23;;;;;;;;;;;19.60;95.40;;;;;;5095212;28;19923;-69
2022/10/15 10:43:54;;;;;;;;;;;19.60;95.30;;;;;;5094028;28;19931;-68
2022/10/15 10:46:23;;;;;;;;;;;19.50;95.50;;;;;;5094547;28;19934;-69
2022/10/15 10:48:51;;;;;;;;;;;19.50;95.00;;;;;;5094555;28;19919;-69
2022/10/15 10:51:25;;;;;;;;;;;19.50;95.00;;;;;;5095058;28;19908;-69
2022/10/15 10:53:58;;;;;;;;;;;19.50;95.20;;;;;;5095096;28;19912;-70
2022/10/15 10:56:30;;;;;;;;;;;19.50;95.40;;;;;;5094955;28;19909;-71
2022/10/15 10:59:10;;;;;;;;;;;19.40;95.40;;;;;;5094625;28;19923;-71
2022/10/15 11:01:37;;;;;;;;;;;19.50;95.60;;;;;;5094875;28;20261;-70
2022/10/15 11:04:04;;;;;;;;;;;19.50;95.60;;;;;;5094578;28;20430;-70
2022/10/15 11:06:38;;;;;;;;;;;19.50;95.80;;;;;;5094639;28;20261;-69
2022/10/15 11:09:11;;;;;;;;;;;19.50;95.60;;;;;;5094633;28;19908;-70
2022/10/15 11:11:46;;;;;;;;;;;19.50;95.70;;;;;;5094721;28;19908;-70
2022/10/15 11:14:42;;;;;;;;;;;19.50;95.60;;;;;;5093613;28;19920;-71
2022/10/15 11:17:21;;;;;;;;;;;19.50;95.30;;;;;;5057109;28;19909;-69
2022/10/15 11:19:51;;;;;;;;;;;19.50;95.60;;;;;;5094387;28;19915;-70
2022/10/15 11:22:26;;;;;;;;;;;19.50;95.50;;;;;;5094253;28;19916;-70
2022/10/15 11:25:13;;;;;;;;;;;19.50;95.30;;;;;;5094309;28;19995;-70
2022/10/15 11:27:39;;;;;;;;;;;19.50;95.70;;;;;;5093603;28;19908;-70
2022/10/15 11:30:15;;;;;;;;;;;19.40;95.70;;;;;;5094256;28;19929;-70
2022/10/15 11:32:50;;;;;;;;;;;19.40;96.00;;;;;;5093892;28;19933;-70
2022/10/15 11:35:31;;;;;;;;;;;19.40;95.80;;;;;;5093831;28;20416;-70
2022/10/15 11:38:00;;;;;;;;;;;19.30;95.60;;;;;;5093990;28;19916;-70
2022/10/15 11:40:42;;;;;;;;;;;19.30;95.80;;;;;;5093954;28;19995;-70
2022/10/15 11:43:37;;;;;;;;;;;19.30;96.00;;;;;;5093726;28;20372;-70
2022/10/15 11:46:04;;;;;;;;;;;19.30;96.40;;;;;;5084308;28;19908;-69
2022/10/15 11:48:40;;;;;;;;;;;19.30;96.50;;;;;;5093589;28;19947;-69
2022/10/15 11:51:14;;;;;;;;;;;19.30;96.70;;;;;;5093956;28;19969;-69
2022/10/15 11:53:46;;;;;;;;;;;19.40;96.90;;;;;;5093875;28;19912;-70
2022/10/15 11:56:16;;;;;;;;;;;19.40;97.00;;;;;;5093681;28;19969;-69
2022/10/15 11:58:45;;;;;;;;;;;19.40;96.80;;;;;;5092978;28;19922;-69
2022/10/15 12:01:24;;;;;;;;;;;19.40;96.60;;;;;;5093619;28;20617;-70
2022/10/15 12:03:53;;;;;;;;;;;19.30;96.90;;;;;;5093599;28;19970;-70
2022/10/15 12:06:21;;;;;;;;;;;19.40;97.10;;;;;;5093392;28;20017;-70
2022/10/15 12:08:49;;;;;;;;;;;19.30;97.10;;;;;;5093352;28;20364;-70
2022/10/15 12:11:19;;;;;;;;;;;19.40;97.10;;;;;;5092611;28;20422;-70
2022/10/15 12:14:02;;;;;;;;;;;19.30;97.10;;;;;;5092782;28;19935;-69
2022/10/15 12:16:28;;;;;;;;;;;19.30;97.20;;;;;;5093395;28;20287;-69
2022/10/15 12:19:01;;;;;;;;;;;19.40;97.50;;;;;;5093097;28;20023;-71
2022/10/15 12:21:30;;;;;;;;;;;19.40;97.40;;;;;;5093743;28;19908;-71
2022/10/15 12:23:57;;;;;;;;;;;19.30;97.60;;;;;;5093488;28;19912;-68
2022/10/15 12:26:24;;;;;;;;;;;19.20;97.80;;;;;;5093425;28;19908;-70
2022/10/15 12:28:52;;;;;;;;;;;19.20;98.00;;;;;;5092743;28;20331;-69
2022/10/15 12:31:19;;;;;;;;;;;19.30;98.00;;;;;;5092742;28;19915;-71
2022/10/15 12:33:50;;;;;;;;;;;19.30;98.20;;;;;;5093177;28;19908;-69
2022/10/15 12:36:17;;;;;;;;;;;19.30;98.10;;;;;;5074843;28;20328;-70
2022/10/15 12:38:55;;;;;;;;;;;19.30;98.40;;;;;;5091312;28;19922;-69
2022/10/15 12:41:33;;;;;;;;;;;19.30;98.50;;;;;;5092605;28;19930;-70
2022/10/15 12:44:08;;;;;;;;;;;19.30;98.40;;;;;;5092739;28;19909;-69
2022/10/15 12:46:39;;;;;;;;;;;19.30;98.60;;;;;;5092626;28;19908;-69
2022/10/15 12:49:23;;;;;;;;;;;19.20;98.50;;;;;;5092236;28;19909;-71
2022/10/15 12:51:50;;;;;;;;;;;19.30;98.60;;;;;;5092166;28;19976;-72
2022/10/15 12:54:33;;;;;;;;;;;19.30;98.80;;;;;;5092810;28;19915;-67
2022/10/15 12:57:20;;;;;;;;;;;19.20;98.90;;;;;;5074797;28;19994;-70
2022/10/15 12:59:46;;;;;;;;;;;19.20;99.00;;;;;;5091890;28;20316;-71
2022/10/15 13:02:34;;;;;;;;;;;19.10;99.20;;;;;;5092282;28;19915;-70
2022/10/15 13:05:02;;;;;;;;;;;19.10;99.30;;;;;;5092676;28;19919;-69
2022/10/15 13:07:29;;;;;;;;;;;19.00;99.50;;;;;;5092525;28;19916;-70
2022/10/15 13:09:55;;;;;;;;;;;19.00;99.60;;;;;;5092200;28;20300;-69
2022/10/15 13:12:24;;;;;;;;;;;18.90;99.80;;;;;;5092365;28;19912;-69
2022/10/15 13:15:02;;;;;;;;;;;19.00;99.90;;;;;;5092136;28;19924;-71
2022/10/15 13:17:30;;;;;;;;;;;18.90;99.90;;;;;;5092582;28;19912;-71
2022/10/15 13:20:06;;;;;;;;;;;18.90;99.90;;;;;;5092360;28;19950;-69
2022/10/15 13:22:34;;;;;;;;;;;19.00;99.90;;;;;;5092350;28;19912;-69
2022/10/15 13:25:01;;;;;;;;;;;18.90;99.90;;;;;;5092223;28;19919;-70
2022/10/15 13:27:32;;;;;;;;;;;19.00;99.90;;;;;;5092521;28;19914;-68
2022/10/15 13:29:59;;;;;;;;;;;18.90;99.90;;;;;;5092362;28;19908;-69
2022/10/15 13:32:35;;;;;;;;;;;19.00;99.90;;;;;;5092109;28;19916;-70
2022/10/15 13:35:02;;;;;;;;;;;19.00;99.90;;;;;;5091703;28;19912;-68
2022/10/15 13:37:31;;;;;;;;;;;19.00;99.90;;;;;;5092464;28;19916;-67
2022/10/15 13:39:58;;;;;;;;;;;19.00;99.90;;;;;;5091882;28;19920;-69
2022/10/15 13:42:25;;;;;;;;;;;19.00;99.90;;;;;;5091545;28;19947;-69
2022/10/15 13:45:15;;;;;;;;;;;19.00;99.90;;;;;;5092379;28;19916;-69
2022/10/15 13:47:46;;;;;;;;;;;19.00;99.90;;;;;;5077637;28;19908;-68
2022/10/15 13:50:29;;;;;;;;;;;18.90;99.90;;;;;;5087748;28;19912;-69
2022/10/15 13:53:01;;;;;;;;;;;18.90;99.90;;;;;;5095382;28;19908;-69
2022/10/15 13:55:38;;;;;;;;;;;19.00;99.90;;;;;;5095497;28;20340;-69
2022/10/15 13:58:17;;;;;;;;;;;18.90;99.90;;;;;;5095296;28;20428;-68
2022/10/15 14:00:50;;;;;;;;;;;19.00;99.90;;;;;;5095750;28;20326;-69
2022/10/15 14:03:20;;;;;;;;;;;18.90;99.90;;;;;;5095073;28;20056;-70
2022/10/15 14:05:48;;;;;;;;;;;18.90;99.90;;;;;;5095109;28;20433;-69
2022/10/15 14:08:19;;;;;;;;;;;18.90;99.90;;;;;;5095278;28;20325;-70
2022/10/15 14:10:46;;;;;;;;;;;18.90;99.90;;;;;;5095624;28;19951;-70
2022/10/15 14:13:13;;;;;;;;;;;18.90;99.90;;;;;;5095522;28;19914;-68
2022/10/15 14:15:45;;;;;;;;;;;18.90;99.90;;;;;;5095467;28;19938;-69
2022/10/15 14:18:16;;;;;;;;;;;18.90;99.90;;;;;;5095538;28;19916;-69
2022/10/15 14:20:44;;;;;;;;;;;19.00;99.90;;;;;;5095604;28;19908;-69
2022/10/15 14:23:21;;;;;;;;;;;19.00;99.90;;;;;;5095549;28;19912;-69
2022/10/15 14:25:57;;;;;;;;;;;18.90;99.90;;;;;;5095387;28;19908;-68
2022/10/15 14:28:25;;;;;;;;;;;18.90;99.90;;;;;;5095502;28;19923;-68
2022/10/15 14:30:52;;;;;;;;;;;19.00;99.90;;;;;;5095281;28;19916;-69